GLO2021 SBCT-SBRJ
Flight info
| Callsign | GLO2021 |
|---|---|
| Flight time | 0h 59m |
| Altitude | 39000 |
| Route | EDVEB UM548 KOXAG UM400 KOLBI |
| Aircraft | B737/M-SDE2E3FGHIRWXY/LB1 |
Departure
| Time | 2026-04-28 02:37 |
|---|---|
| Airport | Curitiba-Afonso Pena International Airport (SBCT) |
Arrival
| Time | 2026-04-28 03:36 |
|---|---|
| Airport | Santos Dumont Airport (SBRJ) |
| Time | Latitude | Longitude | Altitude | Speed | Heading |
|---|---|---|---|---|---|
| 2026-04-28 02:17 | -25.53459 | -49.17343 | 2995 ft | 0 kts | 225° |
| 2026-04-28 02:23 | -25.53452 | -49.17336 | 2995 ft | 4 kts | 227° |
| 2026-04-28 02:23 | -25.53435 | -49.17313 | 2995 ft | 4 kts | 239° |
| 2026-04-28 02:23 | -25.53425 | -49.17287 | 2995 ft | 4 kts | 274° |
| 2026-04-28 02:23 | -25.53430 | -49.17270 | 2995 ft | 0 kts | 315° |
| 2026-04-28 02:27 | -25.53407 | -49.17279 | 2995 ft | 8 kts | 13° |
| 2026-04-28 02:27 | -25.53334 | -49.17262 | 2995 ft | 15 kts | 331° |
| 2026-04-28 02:27 | -25.53239 | -49.17364 | 2995 ft | 22 kts | 315° |
| 2026-04-28 02:27 | -25.53131 | -49.17484 | 2995 ft | 22 kts | 315° |
| 2026-04-28 02:28 | -25.53028 | -49.17601 | 2995 ft | 21 kts | 314° |
| 2026-04-28 02:28 | -25.52982 | -49.17746 | 2994 ft | 20 kts | 272° |
| 2026-04-28 02:28 | -25.52951 | -49.17891 | 2994 ft | 20 kts | 314° |
| 2026-04-28 02:28 | -25.52850 | -49.17987 | 2992 ft | 19 kts | 341° |
| 2026-04-28 02:29 | -25.52740 | -49.17997 | 2994 ft | 9 kts | 358° |
| 2026-04-28 02:29 | -25.52723 | -49.17998 | 2994 ft | 0 kts | 356° |
| 2026-04-28 02:31 | -25.52693 | -49.17999 | 2994 ft | 0 kts | 357° |
| 2026-04-28 02:31 | -25.52690 | -49.18000 | 2994 ft | 4 kts | 357° |
| 2026-04-28 02:32 | -25.52644 | -49.18002 | 2994 ft | 0 kts | 355° |
| 2026-04-28 02:33 | -25.52621 | -49.18003 | 2995 ft | 9 kts | 358° |
| 2026-04-28 02:34 | -25.52573 | -49.18004 | 2995 ft | 9 kts | 359° |
| 2026-04-28 02:34 | -25.52480 | -49.18013 | 2995 ft | 18 kts | 340° |
| 2026-04-28 02:34 | -25.52365 | -49.18123 | 2996 ft | 26 kts | 314° |
| 2026-04-28 02:34 | -25.52241 | -49.18222 | 2996 ft | 15 kts | 351° |
| 2026-04-28 02:35 | -25.52246 | -49.18268 | 2995 ft | 9 kts | 140° |
| 2026-04-28 02:35 | -25.52264 | -49.18233 | 2996 ft | 0 kts | 135° |
| 2026-04-28 02:36 | -25.52332 | -49.18156 | 2996 ft | 53 kts | 134° |
| 2026-04-28 02:37 | -25.52814 | -49.17613 | 2993 ft | 142 kts | 134° |
| 2026-04-28 02:37 | -25.53649 | -49.16675 | 3415 ft | 186 kts | 134° |
| 2026-04-28 02:37 | -25.54643 | -49.15560 | 4254 ft | 209 kts | 132° |
| 2026-04-28 02:37 | -25.55334 | -49.14221 | 5546 ft | 201 kts | 97° |
| 2026-04-28 02:38 | -25.55191 | -49.12678 | 6234 ft | 214 kts | 77° |
| 2026-04-28 02:38 | -25.54864 | -49.10938 | 6515 ft | 244 kts | 79° |
| 2026-04-28 02:38 | -25.54613 | -49.08993 | 6933 ft | 271 kts | 83° |
| 2026-04-28 02:38 | -25.54439 | -49.06850 | 7614 ft | 285 kts | 84° |
| 2026-04-28 02:39 | -25.54298 | -49.04645 | 8516 ft | 292 kts | 84° |
| 2026-04-28 02:39 | -25.54164 | -49.02347 | 9376 ft | 302 kts | 84° |
| 2026-04-28 02:39 | -25.54032 | -48.99990 | 10213 ft | 311 kts | 84° |
| 2026-04-28 02:39 | -25.53894 | -48.97540 | 10727 ft | 331 kts | 84° |
| 2026-04-28 02:40 | -25.53742 | -48.94894 | 10920 ft | 360 kts | 84° |
| 2026-04-28 02:40 | -25.53553 | -48.92040 | 11452 ft | 373 kts | 82° |
| 2026-04-28 02:40 | -25.53207 | -48.89217 | 12316 ft | 376 kts | 78° |
| 2026-04-28 02:40 | -25.52693 | -48.86349 | 13042 ft | 383 kts | 74° |
| 2026-04-28 02:41 | -25.52045 | -48.83471 | 13761 ft | 391 kts | 72° |
| 2026-04-28 02:41 | -25.51293 | -48.80537 | 14415 ft | 397 kts | 70° |
| 2026-04-28 02:41 | -25.50499 | -48.77601 | 15133 ft | 401 kts | 70° |
| 2026-04-28 02:41 | -25.49722 | -48.74612 | 15854 ft | 406 kts | 70° |
| 2026-04-28 02:42 | -25.48982 | -48.71575 | 16542 ft | 412 kts | 71° |
| 2026-04-28 02:42 | -25.48278 | -48.68511 | 17211 ft | 417 kts | 72° |
| 2026-04-28 02:42 | -25.47580 | -48.65363 | 17890 ft | 423 kts | 72° |
| 2026-04-28 02:42 | -25.46880 | -48.62162 | 18463 ft | 430 kts | 71° |
| 2026-04-28 02:43 | -25.46173 | -48.58928 | 19014 ft | 435 kts | 71° |
| 2026-04-28 02:43 | -25.45454 | -48.55662 | 19608 ft | 437 kts | 71° |
| 2026-04-28 02:43 | -25.44736 | -48.52422 | 20206 ft | 440 kts | 71° |
| 2026-04-28 02:43 | -25.43999 | -48.49109 | 20758 ft | 445 kts | 71° |
| 2026-04-28 02:44 | -25.43254 | -48.45774 | 21306 ft | 448 kts | 71° |
| 2026-04-28 02:44 | -25.42500 | -48.42404 | 21848 ft | 452 kts | 71° |
| 2026-04-28 02:44 | -25.41742 | -48.39015 | 22410 ft | 455 kts | 71° |
| 2026-04-28 02:44 | -25.40984 | -48.35626 | 22924 ft | 459 kts | 71° |
| 2026-04-28 02:45 | -25.40212 | -48.32180 | 23418 ft | 464 kts | 71° |
| 2026-04-28 02:45 | -25.39434 | -48.28703 | 23860 ft | 467 kts | 71° |
| 2026-04-28 02:45 | -25.38649 | -48.25203 | 24285 ft | 470 kts | 71° |
| 2026-04-28 02:45 | -25.37860 | -48.21685 | 24715 ft | 473 kts | 72° |
| 2026-04-28 02:46 | -25.37098 | -48.18293 | 25129 ft | 475 kts | 71° |
| 2026-04-28 02:46 | -25.36298 | -48.14735 | 25533 ft | 478 kts | 71° |
| 2026-04-28 02:46 | -25.35499 | -48.11187 | 25944 ft | 481 kts | 71° |
| 2026-04-28 02:46 | -25.34685 | -48.07578 | 26351 ft | 484 kts | 71° |
| 2026-04-28 02:47 | -25.33868 | -48.03955 | 26752 ft | 487 kts | 71° |
| 2026-04-28 02:47 | -25.33042 | -48.00303 | 27140 ft | 490 kts | 72° |
| 2026-04-28 02:47 | -25.32219 | -47.96633 | 27550 ft | 492 kts | 72° |
| 2026-04-28 02:47 | -25.31463 | -47.92927 | 27936 ft | 496 kts | 74° |
| 2026-04-28 02:48 | -25.30802 | -47.89216 | 28298 ft | 499 kts | 76° |
| 2026-04-28 02:48 | -25.30191 | -47.85423 | 28653 ft | 503 kts | 76° |
| 2026-04-28 02:48 | -25.29583 | -47.81603 | 29002 ft | 505 kts | 76° |
| 2026-04-28 02:48 | -25.28946 | -47.77776 | 29355 ft | 507 kts | 75° |
| 2026-04-28 02:49 | -25.28273 | -47.73938 | 29734 ft | 508 kts | 75° |
| 2026-04-28 02:49 | -25.27577 | -47.70094 | 30067 ft | 511 kts | 75° |
| 2026-04-28 02:49 | -25.26876 | -47.66236 | 30337 ft | 514 kts | 75° |
| 2026-04-28 02:49 | -25.26170 | -47.62350 | 30616 ft | 516 kts | 75° |
| 2026-04-28 02:50 | -25.25462 | -47.58515 | 30891 ft | 517 kts | 74° |
| 2026-04-28 02:50 | -25.24734 | -47.54610 | 31199 ft | 518 kts | 74° |
| 2026-04-28 02:50 | -25.24003 | -47.50696 | 31482 ft | 519 kts | 74° |
| 2026-04-28 02:50 | -25.23273 | -47.46776 | 31780 ft | 520 kts | 74° |
| 2026-04-28 02:51 | -25.22545 | -47.42847 | 32164 ft | 519 kts | 74° |
| 2026-04-28 02:51 | -25.21840 | -47.38993 | 32598 ft | 517 kts | 74° |
| 2026-04-28 02:51 | -25.21133 | -47.35101 | 33063 ft | 515 kts | 74° |
| 2026-04-28 02:51 | -25.20428 | -47.31218 | 33441 ft | 514 kts | 74° |
| 2026-04-28 02:52 | -25.19721 | -47.27337 | 33773 ft | 514 kts | 74° |
| 2026-04-28 02:52 | -25.19011 | -47.23457 | 34152 ft | 513 kts | 74° |
| 2026-04-28 02:52 | -25.18311 | -47.19642 | 34483 ft | 512 kts | 74° |
| 2026-04-28 02:52 | -25.17604 | -47.15799 | 34742 ft | 512 kts | 73° |
| 2026-04-28 02:53 | -25.17123 | -47.13190 | 34901 ft | 513 kts | 73° |
| 2026-04-28 02:53 | -25.16409 | -47.09319 | 35136 ft | 514 kts | 73° |
| 2026-04-28 02:53 | -25.15465 | -47.04197 | 35534 ft | 513 kts | 73° |
| 2026-04-28 02:53 | -25.14985 | -47.01599 | 35730 ft | 512 kts | 73° |
| 2026-04-28 02:54 | -25.14220 | -46.97803 | 35985 ft | 510 kts | 70° |
| 2026-04-28 02:54 | -25.13113 | -46.94106 | 36153 ft | 502 kts | 57° |
| 2026-04-28 02:54 | -25.11385 | -46.90807 | 36469 ft | 491 kts | 50° |
| 2026-04-28 02:54 | -25.09529 | -46.87666 | 36846 ft | 488 kts | 50° |
| 2026-04-28 02:55 | -25.07825 | -46.84453 | 37023 ft | 495 kts | 57° |
| 2026-04-28 02:55 | -25.06383 | -46.80967 | 37172 ft | 501 kts | 61° |
| 2026-04-28 02:55 | -25.05056 | -46.77399 | 37413 ft | 501 kts | 61° |
| 2026-04-28 02:55 | -25.03686 | -46.73878 | 37693 ft | 498 kts | 59° |
| 2026-04-28 02:56 | -25.02206 | -46.70430 | 37943 ft | 495 kts | 57° |
| 2026-04-28 02:56 | -25.00678 | -46.67074 | 38141 ft | 495 kts | 56° |
| 2026-04-28 02:56 | -24.99120 | -46.63684 | 38387 ft | 494 kts | 56° |
| 2026-04-28 02:56 | -24.97577 | -46.60291 | 38641 ft | 493 kts | 56° |
| 2026-04-28 02:57 | -24.96047 | -46.56898 | 38826 ft | 493 kts | 57° |
| 2026-04-28 02:57 | -24.94523 | -46.53499 | 38992 ft | 493 kts | 57° |
| 2026-04-28 02:57 | -24.93016 | -46.50132 | 39035 ft | 496 kts | 57° |
| 2026-04-28 02:58 | -24.89960 | -46.43300 | 39032 ft | 494 kts | 57° |
| 2026-04-28 02:58 | -24.86925 | -46.36525 | 39032 ft | 491 kts | 57° |
| 2026-04-28 02:59 | -24.83921 | -46.29842 | 39038 ft | 488 kts | 57° |
| 2026-04-28 02:59 | -24.80902 | -46.23143 | 39038 ft | 487 kts | 57° |
| 2026-04-28 03:00 | -24.77875 | -46.16436 | 39023 ft | 488 kts | 57° |
| 2026-04-28 03:00 | -24.74870 | -46.09788 | 39039 ft | 489 kts | 57° |
| 2026-04-28 03:01 | -24.71825 | -46.03059 | 39049 ft | 491 kts | 57° |
| 2026-04-28 03:01 | -24.68762 | -45.96298 | 39035 ft | 494 kts | 57° |
| 2026-04-28 03:02 | -24.65704 | -45.89556 | 39044 ft | 496 kts | 57° |
| 2026-04-28 03:02 | -24.62615 | -45.82757 | 39045 ft | 497 kts | 57° |
| 2026-04-28 03:03 | -24.59511 | -45.75934 | 39033 ft | 498 kts | 57° |
| 2026-04-28 03:03 | -24.56425 | -45.69161 | 39042 ft | 497 kts | 57° |
| 2026-04-28 03:04 | -24.53329 | -45.62375 | 39039 ft | 496 kts | 57° |
| 2026-04-28 03:04 | -24.50224 | -45.55579 | 39036 ft | 494 kts | 57° |
| 2026-04-28 03:05 | -24.47161 | -45.48888 | 39037 ft | 492 kts | 57° |
| 2026-04-28 03:05 | -24.44091 | -45.42191 | 39038 ft | 490 kts | 57° |
| 2026-04-28 03:06 | -24.41029 | -45.35519 | 39036 ft | 488 kts | 57° |
| 2026-04-28 03:06 | -24.37990 | -45.28909 | 39038 ft | 486 kts | 57° |
| 2026-04-28 03:07 | -24.34942 | -45.22288 | 39038 ft | 485 kts | 57° |
| 2026-04-28 03:07 | -24.31899 | -45.15689 | 39034 ft | 484 kts | 57° |
| 2026-04-28 03:08 | -24.28873 | -45.09135 | 39043 ft | 484 kts | 57° |
| 2026-04-28 03:08 | -24.25832 | -45.02558 | 39043 ft | 484 kts | 57° |
| 2026-04-28 03:09 | -24.22776 | -44.95959 | 39042 ft | 485 kts | 57° |
| 2026-04-28 03:09 | -24.19735 | -44.89399 | 39042 ft | 486 kts | 57° |
| 2026-04-28 03:10 | -24.16671 | -44.82797 | 39040 ft | 486 kts | 57° |
| 2026-04-28 03:10 | -24.13613 | -44.76215 | 39045 ft | 486 kts | 57° |
| 2026-04-28 03:11 | -24.10616 | -44.69575 | 39031 ft | 489 kts | 62° |
| 2026-04-28 03:11 | -24.09486 | -44.66039 | 38980 ft | 497 kts | 75° |
| 2026-04-28 03:11 | -24.09153 | -44.62250 | 39150 ft | 497 kts | 85° |
| 2026-04-28 03:11 | -24.09094 | -44.58450 | 39011 ft | 501 kts | 86° |
| 2026-04-28 03:12 | -24.08991 | -44.54645 | 39066 ft | 497 kts | 82° |
| 2026-04-28 03:12 | -24.07939 | -44.47267 | 39064 ft | 491 kts | 74° |
| 2026-04-28 03:13 | -24.06536 | -44.39956 | 39041 ft | 490 kts | 75° |
| 2026-04-28 03:13 | -24.05346 | -44.32610 | 39042 ft | 489 kts | 77° |
| 2026-04-28 03:14 | -24.04300 | -44.25244 | 38902 ft | 491 kts | 77° |
| 2026-04-28 03:14 | -24.03764 | -44.21519 | 38050 ft | 499 kts | 77° |
| 2026-04-28 03:14 | -24.03219 | -44.17808 | 37713 ft | 489 kts | 77° |
| 2026-04-28 03:14 | -24.02674 | -44.14159 | 36740 ft | 496 kts | 77° |
| 2026-04-28 03:15 | -24.02120 | -44.10462 | 36429 ft | 487 kts | 77° |
| 2026-04-28 03:15 | -24.01555 | -44.06768 | 35438 ft | 495 kts | 75° |
| 2026-04-28 03:15 | -24.00797 | -44.03127 | 34768 ft | 487 kts | 67° |
| 2026-04-28 03:15 | -23.99192 | -43.99929 | 33737 ft | 482 kts | 46° |
| 2026-04-28 03:16 | -23.97116 | -43.97085 | 32779 ft | 482 kts | 45° |
| 2026-04-28 03:16 | -23.95010 | -43.94223 | 32227 ft | 477 kts | 47° |
| 2026-04-28 03:16 | -23.93147 | -43.91158 | 31531 ft | 482 kts | 54° |
| 2026-04-28 03:16 | -23.91530 | -43.87956 | 30686 ft | 486 kts | 57° |
| 2026-04-28 03:17 | -23.89980 | -43.84723 | 30268 ft | 476 kts | 56° |
| 2026-04-28 03:17 | -23.86810 | -43.78461 | 28833 ft | 469 kts | 54° |
| 2026-04-28 03:17 | -23.85155 | -43.75425 | 28328 ft | 461 kts | 53° |
| 2026-04-28 03:18 | -23.83487 | -43.72449 | 27650 ft | 458 kts | 53° |
| 2026-04-28 03:18 | -23.81825 | -43.69499 | 27054 ft | 453 kts | 53° |
| 2026-04-28 03:18 | -23.80181 | -43.66563 | 26445 ft | 450 kts | 53° |
| 2026-04-28 03:18 | -23.78565 | -43.63652 | 25842 ft | 447 kts | 53° |
| 2026-04-28 03:19 | -23.76982 | -43.60784 | 25222 ft | 445 kts | 54° |
| 2026-04-28 03:19 | -23.75391 | -43.57900 | 24619 ft | 443 kts | 54° |
| 2026-04-28 03:19 | -23.73792 | -43.55018 | 24003 ft | 440 kts | 53° |
| 2026-04-28 03:19 | -23.72057 | -43.52290 | 23335 ft | 435 kts | 46° |
| 2026-04-28 03:20 | -23.70024 | -43.49894 | 22675 ft | 425 kts | 37° |
| 2026-04-28 03:20 | -23.67812 | -43.47798 | 22086 ft | 418 kts | 34° |
| 2026-04-28 03:20 | -23.65572 | -43.45804 | 21474 ft | 414 kts | 34° |
| 2026-04-28 03:20 | -23.63387 | -43.43817 | 20890 ft | 411 kts | 36° |
| 2026-04-28 03:21 | -23.61241 | -43.41767 | 20297 ft | 408 kts | 37° |
| 2026-04-28 03:21 | -23.59153 | -43.39678 | 19694 ft | 406 kts | 39° |
| 2026-04-28 03:21 | -23.57107 | -43.37562 | 19100 ft | 404 kts | 40° |
| 2026-04-28 03:21 | -23.55086 | -43.35439 | 18499 ft | 402 kts | 40° |
| 2026-04-28 03:22 | -23.53083 | -43.33334 | 17846 ft | 399 kts | 40° |
| 2026-04-28 03:22 | -23.51107 | -43.31268 | 17241 ft | 395 kts | 40° |
| 2026-04-28 03:22 | -23.49126 | -43.29208 | 16654 ft | 391 kts | 40° |
| 2026-04-28 03:22 | -23.47165 | -43.27175 | 16072 ft | 387 kts | 40° |
| 2026-04-28 03:23 | -23.45217 | -43.25161 | 15502 ft | 384 kts | 40° |
| 2026-04-28 03:23 | -23.43288 | -43.23168 | 14928 ft | 381 kts | 41° |
| 2026-04-28 03:23 | -23.41363 | -43.21181 | 14326 ft | 379 kts | 41° |
| 2026-04-28 03:23 | -23.39459 | -43.19214 | 13768 ft | 377 kts | 41° |
| 2026-04-28 03:24 | -23.37575 | -43.17239 | 13166 ft | 373 kts | 42° |
| 2026-04-28 03:24 | -23.35753 | -43.15308 | 12602 ft | 368 kts | 42° |
| 2026-04-28 03:24 | -23.33930 | -43.13370 | 12049 ft | 364 kts | 42° |
| 2026-04-28 03:24 | -23.32122 | -43.11447 | 11483 ft | 361 kts | 43° |
| 2026-04-28 03:25 | -23.30333 | -43.09547 | 10936 ft | 357 kts | 43° |
| 2026-04-28 03:25 | -23.28564 | -43.07672 | 10544 ft | 350 kts | 43° |
| 2026-04-28 03:25 | -23.26866 | -43.05872 | 10519 ft | 331 kts | 42° |
| 2026-04-28 03:25 | -23.25237 | -43.04145 | 10191 ft | 324 kts | 42° |
| 2026-04-28 03:26 | -23.23680 | -43.02498 | 10210 ft | 305 kts | 42° |
| 2026-04-28 03:26 | -23.22177 | -43.00910 | 9914 ft | 300 kts | 42° |
| 2026-04-28 03:26 | -23.20713 | -42.99365 | 9795 ft | 287 kts | 43° |
| 2026-04-28 03:26 | -23.19247 | -42.97820 | 9224 ft | 293 kts | 43° |
| 2026-04-28 03:27 | -23.17787 | -42.96282 | 8769 ft | 294 kts | 43° |
| 2026-04-28 03:27 | -23.16326 | -42.94743 | 8465 ft | 289 kts | 43° |
| 2026-04-28 03:27 | -23.14882 | -42.93220 | 8082 ft | 288 kts | 43° |
| 2026-04-28 03:27 | -23.13453 | -42.91713 | 7742 ft | 285 kts | 43° |
| 2026-04-28 03:28 | -23.12039 | -42.90221 | 7395 ft | 282 kts | 43° |
| 2026-04-28 03:28 | -23.10633 | -42.88739 | 7059 ft | 280 kts | 43° |
| 2026-04-28 03:28 | -23.09255 | -42.87288 | 6726 ft | 278 kts | 43° |
| 2026-04-28 03:28 | -23.07870 | -42.85831 | 6375 ft | 276 kts | 43° |
| 2026-04-28 03:29 | -23.06447 | -42.84446 | 5997 ft | 274 kts | 36° |
| 2026-04-28 03:29 | -23.04795 | -42.83441 | 5574 ft | 273 kts | 13° |
| 2026-04-28 03:29 | -23.02972 | -42.83614 | 5451 ft | 264 kts | 337° |
| 2026-04-28 03:29 | -23.01564 | -42.84904 | 4913 ft | 271 kts | 301° |
| 2026-04-28 03:30 | -23.00712 | -42.86674 | 4605 ft | 269 kts | 297° |
| 2026-04-28 03:30 | -22.99862 | -42.88463 | 4420 ft | 261 kts | 299° |
| 2026-04-28 03:30 | -22.98940 | -42.90170 | 4132 ft | 260 kts | 301° |
| 2026-04-28 03:30 | -22.98023 | -42.91829 | 3962 ft | 260 kts | 301° |
| 2026-04-28 03:31 | -22.97097 | -42.93526 | 3750 ft | 262 kts | 300° |
| 2026-04-28 03:31 | -22.96183 | -42.95232 | 3562 ft | 260 kts | 298° |
| 2026-04-28 03:31 | -22.95426 | -42.97008 | 3362 ft | 257 kts | 290° |
| 2026-04-28 03:31 | -22.94851 | -42.98813 | 3176 ft | 250 kts | 286° |
| 2026-04-28 03:32 | -22.94362 | -43.00599 | 2992 ft | 244 kts | 285° |
| 2026-04-28 03:32 | -22.93887 | -43.02347 | 2801 ft | 239 kts | 286° |
| 2026-04-28 03:32 | -22.93407 | -43.04044 | 2638 ft | 232 kts | 289° |
| 2026-04-28 03:32 | -22.92684 | -43.05583 | 2438 ft | 225 kts | 307° |
| 2026-04-28 03:33 | -22.91702 | -43.06820 | 2358 ft | 208 kts | 311° |
| 2026-04-28 03:33 | -22.90798 | -43.07974 | 2172 ft | 199 kts | 307° |
| 2026-04-28 03:33 | -22.89993 | -43.09151 | 1955 ft | 190 kts | 305° |
| 2026-04-28 03:33 | -22.89278 | -43.10234 | 1896 ft | 159 kts | 305° |
| 2026-04-28 03:34 | -22.88679 | -43.11143 | 1683 ft | 137 kts | 305° |
| 2026-04-28 03:34 | -22.88156 | -43.11939 | 1357 ft | 129 kts | 305° |
| 2026-04-28 03:34 | -22.87640 | -43.12727 | 939 ft | 126 kts | 305° |
| 2026-04-28 03:34 | -22.87124 | -43.13507 | 520 ft | 128 kts | 303° |
| 2026-04-28 03:35 | -22.86695 | -43.14358 | 471 ft | 128 kts | 282° |
| 2026-04-28 03:35 | -22.86675 | -43.15275 | 644 ft | 124 kts | 251° |
| 2026-04-28 03:35 | -22.87127 | -43.16050 | 664 ft | 125 kts | 213° |
| 2026-04-28 03:35 | -22.87950 | -43.16359 | 657 ft | 128 kts | 187° |
| 2026-04-28 03:36 | -22.88902 | -43.16430 | 401 ft | 145 kts | 180° |
| 2026-04-28 03:36 | -22.89925 | -43.16348 | 180 ft | 143 kts | 174° |
| 2026-04-28 03:36 | -22.90833 | -43.16292 | 25 ft | 116 kts | 177° |
| 2026-04-28 03:36 | -22.91326 | -43.16263 | 17 ft | 18 kts | 176° |
| 2026-04-28 03:37 | -22.91358 | -43.16261 | 19 ft | 12 kts | 180° |
| 2026-04-28 03:37 | -22.91486 | -43.16262 | 17 ft | 11 kts | 189° |
| 2026-04-28 03:37 | -22.91521 | -43.16318 | 16 ft | 11 kts | 266° |